CYYZ/YYZ METAR and TAF weather

Enter ICAO airport designator
Station Type Date Time Source
CYYZ METAR 2017/06/26 00:00 UTC NOAA

CYYZ 260000Z 29014G22KT 15SM FEW055 SCT090 SCT250 19/09 A2995 RMK CU2AC1CI1 CI TR CB DIST E SLP143 DENSITY ALT 1200FT


Station Type Date Time Source
CYYZ Decoded METAR 2017/06/26 00:00 UTC NOAA

Toronto Pearson Int'L. Ont., Canada (CYYZ) 43-40N 079-38W 173M
Jun 25, 2017 - 08:00 PM EDT / 2017.06.26 0000 UTC
Wind: from the WNW (290 degrees) at 16 MPH (14 KT) gusting to 25 MPH (22 KT):0
Visibility: 15 mile(s):0
Sky conditions: partly cloudy
Weather: Cumulonimbus clouds observed
Temperature: 66 F (19 C)
Dew Point: 48 F (9 C)
Relative Humidity: 52%
Pressure (altimeter): 29.95 in. Hg (1014 hPa)
ob: CYYZ 260000Z 29014G22KT 15SM FEW055 SCT090 SCT250 19/09 A2995 RMK CU2AC1CI1 CI TR CB DIST E SLP143 DENSITY ALT 1200FT
cycle: 0

Station Type Date Time Source
CYYZ TAF 2017/06/25 21:48 UTC NOAA

TAF CYYZ 252040Z 2521/2624 28015G25KT P6SM SCT040
TEMPO 2521/2524 BKN040
FM260000 28012KT P6SM SCT060
BECMG 2604/2606 28007KT
FM261000 25005KT P6SM BKN025
FM261500 34005KT P6SM SCT040 PROB30 2615/2623 VRB15G30KT 3SM TSRA BKN030CB
RMK NXT FCST BY 260000Z


Example: see airport list